PWSweather.com
Personal Weather Stations
Station Observations
PENICUIKWS
PenicuikGB

PenicuikGB

Lat: 55.830932, Lon: -3.224533000000065

Elevation: 166

Station Type: Fine Offset

http://weather.penicuik.org

High Low Average
Temperature 60.4°F15.8°C 50.0°F10.0°C 53.2°F11.8°C
Dew Point 59.0°F15.0°C 49.7°F9.8°C 52.3°F11.3°C
Winds 8.5 mph 13.7 kmh Calm Calm 2.0 mph ESE3.2 kmh ESE
Wind Gusts 13.6 mph21.9 kmh -- 4.0 mph6.4 kmh
Humidity 99% 93% 97%
Pressure 30.32 in1026.8 mb 30.15 in1021.0 mb -
Precipitation 0.51 in13.0 mm - -
Hour Temp Dew Point Humidity Winds Wind Gusts Pressure Precip Precip Rate Daily Precip Total
12:00 AM 60.4°F15.8°C 59.0°F15.0°C 95% 0.2 mph NNE0.3 kmh NNE 0.7 mph1.1 kmh 30.16 in1021.3 mb 0.00 in0.0 mm 0.00 in0.0 mm 0.00 in0.0 mm
12:15 AM 60.4°F15.8°C 59.0°F15.0°C 95% 0.2 mph W0.3 kmh W 0.7 mph1.1 kmh 30.16 in1021.3 mb 0.00 in0.0 mm 0.00 in0.0 mm 0.00 in0.0 mm
12:30 AM 60.4°F15.8°C 59.0°F15.0°C 95% 0.7 mph S1.1 kmh S 1.6 mph2.6 kmh 30.16 in1021.3 mb 0.00 in0.0 mm 0.00 in0.0 mm 0.00 in0.0 mm
12:45 AM 60.4°F15.8°C 59.0°F15.0°C 95% 0.3 mph SSW0.5 kmh SSW 1.6 mph2.6 kmh 30.15 in1021.0 mb 0.00 in0.0 mm 0.00 in0.0 mm 0.00 in0.0 mm
01:00 AM 60.1°F15.6°C 58.7°F14.8°C 95% 0.1 mph SW0.2 kmh SW 0.7 mph1.1 kmh 30.16 in1021.3 mb 0.00 in0.0 mm 0.00 in0.0 mm 0.00 in0.0 mm
01:15 AM 60.1°F15.6°C 58.7°F14.8°C 95% Calm Calm -- 30.16 in1021.3 mb 0.00 in0.0 mm 0.00 in0.0 mm 0.00 in0.0 mm
01:30 AM 59.9°F15.5°C 58.5°F14.7°C 95% 1.1 mph N1.8 kmh N 2.2 mph3.5 kmh 30.17 in1021.7 mb 0.00 in0.0 mm 0.00 in0.0 mm 0.00 in0.0 mm
02:00 AM 59.7°F15.4°C 58.0°F14.4°C 94% Calm Calm 0.7 mph1.1 kmh 30.17 in1021.7 mb 0.00 in0.0 mm 0.00 in0.0 mm 0.00 in0.0 mm
02:15 AM 59.5°F15.3°C 57.8°F14.3°C 94% 0.8 mph NW1.3 kmh NW 2.2 mph3.5 kmh 30.17 in1021.7 mb 0.00 in0.0 mm 0.00 in0.0 mm 0.00 in0.0 mm
02:30 AM 59.2°F15.1°C 57.5°F14.2°C 94% 0.9 mph WSW1.4 kmh WSW 1.6 mph2.6 kmh 30.16 in1021.3 mb 0.00 in0.0 mm 0.00 in0.0 mm 0.00 in0.0 mm
02:45 AM 59.0°F15.0°C 57.0°F13.9°C 93% 0.3 mph SW0.5 kmh SW 1.6 mph2.6 kmh 30.17 in1021.7 mb 0.00 in0.0 mm 0.00 in0.0 mm 0.00 in0.0 mm
03:00 AM 58.8°F14.9°C 57.1°F13.9°C 94% 0.3 mph W0.5 kmh W 0.7 mph1.1 kmh 30.17 in1021.7 mb 0.00 in0.0 mm 0.00 in0.0 mm 0.00 in0.0 mm
03:15 AM 58.5°F14.7°C 56.5°F13.6°C 93% 1.2 mph WSW1.9 kmh WSW 2.2 mph3.5 kmh 30.17 in1021.7 mb 0.00 in0.0 mm 0.00 in0.0 mm 0.00 in0.0 mm
03:45 AM 57.2°F14.0°C 55.2°F12.9°C 93% 1.0 mph S1.6 kmh S 1.6 mph2.6 kmh 30.18 in1022.0 mb 0.00 in0.0 mm 0.00 in0.0 mm 0.00 in0.0 mm
04:00 AM 56.3°F13.5°C 54.9°F12.7°C 95% 0.8 mph NE1.3 kmh NE 1.6 mph2.6 kmh 30.18 in1022.0 mb 0.00 in0.0 mm 0.00 in0.0 mm 0.00 in0.0 mm
04:15 AM 55.9°F13.3°C 54.5°F12.5°C 95% 0.7 mph S1.1 kmh S 2.2 mph3.5 kmh 30.19 in1022.4 mb 0.00 in0.0 mm 0.00 in0.0 mm 0.00 in0.0 mm
04:30 AM 55.4°F13.0°C 54.0°F12.2°C 95% 1.1 mph SSE1.8 kmh SSE 3.1 mph5.0 kmh 30.18 in1022.0 mb 0.00 in0.0 mm 0.00 in0.0 mm 0.00 in0.0 mm
05:00 AM 54.7°F12.6°C 53.0°F11.7°C 94% 1.3 mph WNW2.1 kmh WNW 3.1 mph5.0 kmh 30.18 in1022.0 mb 0.00 in0.0 mm 0.00 in0.0 mm 0.00 in0.0 mm
05:15 AM 54.3°F12.4°C 52.6°F11.4°C 94% 2.2 mph S3.5 kmh S 4.5 mph7.2 kmh 30.20 in1022.7 mb 0.00 in0.0 mm 0.00 in0.0 mm 0.00 in0.0 mm
05:30 AM 54.0°F12.2°C 52.3°F11.3°C 94% 1.9 mph SSE3.1 kmh SSE 3.1 mph5.0 kmh 30.20 in1022.7 mb 0.00 in0.0 mm 0.00 in0.0 mm 0.00 in0.0 mm
06:00 AM 53.4°F11.9°C 51.7°F10.9°C 94% 1.7 mph SE2.7 kmh SE 3.1 mph5.0 kmh 30.22 in1023.4 mb 0.00 in0.0 mm 0.00 in0.0 mm 0.00 in0.0 mm
06:15 AM 53.2°F11.8°C 51.3°F10.7°C 93% 1.8 mph S2.9 kmh S 3.1 mph5.0 kmh 30.23 in1023.7 mb 0.00 in0.0 mm 0.00 in0.0 mm 0.00 in0.0 mm
06:28 AM 53.1°F11.7°C 51.1°F10.6°C 93% 0.7 mph N1.1 kmh N 0.7 mph1.1 kmh 30.23 in1023.7 mb 0.04 in1.0 mm 0.18 in4.6 mm 0.04 in1.0 mm
06:30 AM 53.1°F11.7°C 51.1°F10.6°C 93% 1.2 mph N1.9 kmh N 1.6 mph2.6 kmh 30.22 in1023.4 mb 0.06 in1.5 mm 0.60 in15.2 mm 0.06 in1.5 mm
06:45 AM 52.7°F11.5°C 51.0°F10.6°C 94% 0.3 mph SSE0.5 kmh SSE 1.6 mph2.6 kmh 30.22 in1023.4 mb 0.11 in2.8 mm 0.20 in5.1 mm 0.11 in2.8 mm
07:00 AM 52.2°F11.2°C 50.5°F10.3°C 94% Calm Calm -- 30.25 in1024.4 mb 0.13 in3.3 mm 0.03 in0.8 mm 0.13 in3.3 mm
07:15 AM 52.2°F11.2°C 50.8°F10.4°C 95% 0.4 mph ENE0.6 kmh ENE 1.6 mph2.6 kmh 30.25 in1024.4 mb 0.13 in3.3 mm 0.00 in0.0 mm 0.17 in4.3 mm
07:30 AM 52.2°F11.2°C 51.1°F10.6°C 96% 0.4 mph S0.6 kmh S 1.6 mph2.6 kmh 30.25 in1024.4 mb 0.13 in3.3 mm 0.00 in0.0 mm 0.19 in4.8 mm
07:45 AM 52.2°F11.2°C 51.1°F10.6°C 96% 0.7 mph S1.1 kmh S 1.6 mph2.6 kmh 30.25 in1024.4 mb 0.09 in2.3 mm 0.00 in0.0 mm 0.21 in5.3 mm
08:00 AM 52.2°F11.2°C 51.1°F10.6°C 96% 1.3 mph S2.1 kmh S 3.1 mph5.0 kmh 30.26 in1024.7 mb 0.09 in2.3 mm 0.00 in0.0 mm 0.22 in5.6 mm
08:15 AM 51.8°F11.0°C 51.0°F10.6°C 97% 1.4 mph SSE2.3 kmh SSE 2.2 mph3.5 kmh 30.26 in1024.7 mb 0.08 in2.0 mm 0.00 in0.0 mm 0.25 in6.4 mm
08:30 AM 51.8°F11.0°C 51.0°F10.6°C 97% 1.5 mph S2.4 kmh S 2.2 mph3.5 kmh 30.26 in1024.7 mb 0.09 in2.3 mm 0.04 in1.0 mm 0.28 in7.1 mm
08:45 AM 52.0°F11.1°C 51.2°F10.7°C 97% 1.1 mph NNE1.8 kmh NNE 3.1 mph5.0 kmh 30.25 in1024.4 mb 0.08 in2.0 mm 0.00 in0.0 mm 0.30 in7.6 mm
09:00 AM 52.9°F11.6°C 52.3°F11.3°C 98% 2.9 mph N4.7 kmh N 5.4 mph8.7 kmh 30.26 in1024.7 mb 0.07 in1.8 mm 0.00 in0.0 mm 0.30 in7.6 mm
09:15 AM 53.1°F11.7°C 52.5°F11.4°C 98% 8.5 mph NNE13.7 kmh NNE 13.6 mph21.9 kmh 30.26 in1024.7 mb 0.04 in1.0 mm 0.00 in0.0 mm 0.30 in7.6 mm
09:30 AM 53.2°F11.8°C 52.7°F11.5°C 98% 4.0 mph N6.4 kmh N 6.9 mph11.1 kmh 30.26 in1024.7 mb 0.01 in0.3 mm 0.00 in0.0 mm 0.30 in7.6 mm
09:45 AM 52.9°F11.6°C 52.3°F11.3°C 98% 6.2 mph NNW10.0 kmh NNW 8.3 mph13.4 kmh 30.27 in1025.1 mb 0.01 in0.3 mm 0.00 in0.0 mm 0.31 in7.9 mm
10:00 AM 52.0°F11.1°C 51.4°F10.8°C 98% 6.6 mph N10.6 kmh N 9.8 mph15.8 kmh 30.27 in1025.1 mb 0.05 in1.3 mm 0.05 in1.3 mm 0.34 in8.6 mm
10:15 AM 52.2°F11.2°C 51.6°F10.9°C 98% 5.1 mph N8.2 kmh N 8.3 mph13.4 kmh 30.27 in1025.1 mb 0.08 in2.0 mm 0.12 in3.0 mm 0.38 in9.7 mm
10:30 AM 52.9°F11.6°C 52.3°F11.3°C 98% 3.5 mph N5.6 kmh N 6.9 mph11.1 kmh 30.27 in1025.1 mb 0.09 in2.3 mm 0.04 in1.0 mm 0.39 in9.9 mm
10:45 AM 52.3°F11.3°C 51.8°F11.0°C 98% 6.4 mph NE10.3 kmh NE 10.7 mph17.2 kmh 30.27 in1025.1 mb 0.08 in2.0 mm 0.00 in0.0 mm 0.39 in9.9 mm
11:00 AM 52.2°F11.2°C 51.6°F10.9°C 98% 7.0 mph N11.3 kmh N 9.8 mph15.8 kmh 30.27 in1025.1 mb 0.06 in1.5 mm 0.00 in0.0 mm 0.40 in10.2 mm
11:15 AM 52.0°F11.1°C 51.4°F10.8°C 98% 7.6 mph N12.2 kmh N 10.7 mph17.2 kmh 30.27 in1025.1 mb 0.02 in0.5 mm 0.00 in0.0 mm 0.40 in10.2 mm
11:30 AM 52.2°F11.2°C 51.6°F10.9°C 98% 5.7 mph N9.2 kmh N 10.7 mph17.2 kmh 30.27 in1025.1 mb 0.01 in0.3 mm 0.00 in0.0 mm 0.40 in10.2 mm
11:45 AM 52.9°F11.6°C 52.3°F11.3°C 98% 3.7 mph NNE6.0 kmh NNE 9.2 mph14.8 kmh 30.27 in1025.1 mb 0.01 in0.3 mm 0.00 in0.0 mm 0.40 in10.2 mm
12:00 PM 52.7°F11.5°C 52.2°F11.2°C 98% 6.1 mph N9.8 kmh N 12.1 mph19.5 kmh 30.27 in1025.1 mb 0.01 in0.3 mm 0.00 in0.0 mm 0.41 in10.4 mm
12:15 PM 52.0°F11.1°C 51.4°F10.8°C 98% 6.9 mph N11.1 kmh N 11.4 mph18.3 kmh 30.28 in1025.4 mb 0.01 in0.3 mm 0.00 in0.0 mm 0.41 in10.4 mm
12:30 PM 52.0°F11.1°C 51.2°F10.7°C 97% 5.7 mph N9.2 kmh N 9.2 mph14.8 kmh 30.28 in1025.4 mb 0.01 in0.3 mm 0.00 in0.0 mm 0.41 in10.4 mm
12:45 PM 51.6°F10.9°C 51.1°F10.6°C 98% 6.1 mph N9.8 kmh N 9.2 mph14.8 kmh 30.28 in1025.4 mb 0.02 in0.5 mm 0.04 in1.0 mm 0.43 in10.9 mm
01:00 PM 52.2°F11.2°C 51.3°F10.7°C 97% 5.2 mph NNE8.4 kmh NNE 9.2 mph14.8 kmh 30.28 in1025.4 mb 0.02 in0.5 mm 0.00 in0.0 mm 0.44 in11.2 mm
01:15 PM 52.2°F11.2°C 51.3°F10.7°C 97% 5.0 mph N8.0 kmh N 9.8 mph15.8 kmh 30.28 in1025.4 mb 0.04 in1.0 mm 0.08 in2.0 mm 0.45 in11.4 mm
01:30 PM 53.1°F11.7°C 52.2°F11.2°C 97% 4.5 mph N7.2 kmh N 6.9 mph11.1 kmh 30.28 in1025.4 mb 0.04 in1.0 mm 0.00 in0.0 mm 0.45 in11.4 mm
01:45 PM 53.4°F11.9°C 52.6°F11.4°C 97% 4.6 mph NE7.4 kmh NE 7.6 mph12.2 kmh 30.28 in1025.4 mb 0.02 in0.5 mm 0.00 in0.0 mm 0.45 in11.4 mm
02:00 PM 53.1°F11.7°C 52.0°F11.1°C 96% 5.1 mph N8.2 kmh N 8.3 mph13.4 kmh 30.28 in1025.4 mb 0.01 in0.3 mm 0.00 in0.0 mm 0.45 in11.4 mm
02:15 PM 52.9°F11.6°C 51.8°F11.0°C 96% 6.4 mph NNE10.3 kmh NNE 8.3 mph13.4 kmh 30.28 in1025.4 mb 0.00 in0.0 mm 0.00 in0.0 mm 0.45 in11.4 mm
02:30 PM 53.2°F11.8°C 52.4°F11.3°C 97% 5.2 mph N8.4 kmh N 7.6 mph12.2 kmh 30.28 in1025.4 mb 0.01 in0.3 mm 0.04 in1.0 mm 0.46 in11.7 mm
02:45 PM 53.1°F11.7°C 52.2°F11.2°C 97% 4.4 mph NNE7.1 kmh NNE 7.6 mph12.2 kmh 30.28 in1025.4 mb 0.01 in0.3 mm 0.00 in0.0 mm 0.46 in11.7 mm
03:00 PM 53.2°F11.8°C 52.4°F11.3°C 97% 3.5 mph N5.6 kmh N 6.0 mph9.7 kmh 30.28 in1025.4 mb 0.01 in0.3 mm 0.00 in0.0 mm 0.46 in11.7 mm
03:15 PM 53.2°F11.8°C 52.7°F11.5°C 98% 4.1 mph N6.6 kmh N 6.0 mph9.7 kmh 30.29 in1025.7 mb 0.01 in0.3 mm 0.00 in0.0 mm 0.46 in11.7 mm
03:30 PM 52.7°F11.5°C 52.2°F11.2°C 98% 5.4 mph NNE8.7 kmh NNE 7.6 mph12.2 kmh 30.28 in1025.4 mb 0.01 in0.3 mm 0.00 in0.0 mm 0.47 in11.9 mm
03:45 PM 52.9°F11.6°C 52.3°F11.3°C 98% 3.3 mph N5.3 kmh N 6.0 mph9.7 kmh 30.28 in1025.4 mb 0.01 in0.3 mm 0.00 in0.0 mm 0.47 in11.9 mm
04:00 PM 51.8°F11.0°C 51.3°F10.7°C 98% 4.4 mph N7.1 kmh N 6.0 mph9.7 kmh 30.28 in1025.4 mb 0.01 in0.3 mm 0.00 in0.0 mm 0.47 in11.9 mm
04:15 PM 51.6°F10.9°C 51.4°F10.8°C 99% 5.8 mph NNW9.3 kmh NNW 7.6 mph12.2 kmh 30.29 in1025.7 mb 0.01 in0.3 mm 0.00 in0.0 mm 0.47 in11.9 mm
04:30 PM 51.6°F10.9°C 51.4°F10.8°C 99% 3.3 mph N5.3 kmh N 5.4 mph8.7 kmh 30.29 in1025.7 mb 0.00 in0.0 mm 0.00 in0.0 mm 0.47 in11.9 mm
04:45 PM 51.6°F10.9°C 51.4°F10.8°C 99% 3.3 mph N5.3 kmh N 4.5 mph7.2 kmh 30.29 in1025.7 mb 0.01 in0.3 mm 0.04 in1.0 mm 0.48 in12.2 mm
05:00 PM 51.6°F10.9°C 51.4°F10.8°C 99% 2.1 mph NNE3.4 kmh NNE 3.8 mph6.1 kmh 30.29 in1025.7 mb 0.01 in0.3 mm 0.00 in0.0 mm 0.48 in12.2 mm
05:15 PM 51.6°F10.9°C 51.4°F10.8°C 99% 3.1 mph NNE5.0 kmh NNE 4.5 mph7.2 kmh 30.29 in1025.7 mb 0.01 in0.3 mm 0.00 in0.0 mm 0.48 in12.2 mm
05:30 PM 51.6°F10.9°C 51.4°F10.8°C 99% 2.6 mph N4.2 kmh N 3.8 mph6.1 kmh 30.29 in1025.7 mb 0.02 in0.5 mm 0.04 in1.0 mm 0.50 in12.7 mm
05:45 PM 51.6°F10.9°C 51.4°F10.8°C 99% 4.4 mph NNE7.1 kmh NNE 6.9 mph11.1 kmh 30.29 in1025.7 mb 0.01 in0.3 mm 0.00 in0.0 mm 0.50 in12.7 mm
06:00 PM 51.6°F10.9°C 51.4°F10.8°C 99% 4.1 mph N6.6 kmh N 6.0 mph9.7 kmh 30.29 in1025.7 mb 0.01 in0.3 mm 0.00 in0.0 mm 0.50 in12.7 mm
06:15 PM 51.6°F10.9°C 51.4°F10.8°C 99% 4.1 mph NNE6.6 kmh NNE 6.9 mph11.1 kmh 30.30 in1026.1 mb 0.02 in0.5 mm 0.04 in1.0 mm 0.51 in13.0 mm
06:30 PM 50.7°F10.4°C 50.5°F10.3°C 99% 5.0 mph N8.0 kmh N 7.6 mph12.2 kmh 30.30 in1026.1 mb 0.01 in0.3 mm 0.00 in0.0 mm 0.51 in13.0 mm
06:45 PM 50.7°F10.4°C 50.5°F10.3°C 99% 3.4 mph N5.5 kmh N 6.0 mph9.7 kmh 30.30 in1026.1 mb 0.01 in0.3 mm 0.00 in0.0 mm 0.51 in13.0 mm
07:00 PM 50.5°F10.3°C 50.3°F10.2°C 99% 2.0 mph NNW3.2 kmh NNW 3.1 mph5.0 kmh 30.30 in1026.1 mb 0.01 in0.3 mm 0.00 in0.0 mm 0.51 in13.0 mm
07:15 PM 50.4°F10.2°C 50.1°F10.1°C 99% 1.0 mph N1.6 kmh N 2.2 mph3.5 kmh 30.30 in1026.1 mb 0.00 in0.0 mm 0.00 in0.0 mm 0.51 in13.0 mm
07:30 PM 50.4°F10.2°C 50.1°F10.1°C 99% 0.2 mph N0.3 kmh N 0.7 mph1.1 kmh 30.31 in1026.4 mb 0.00 in0.0 mm 0.00 in0.0 mm 0.51 in13.0 mm
07:45 PM 50.4°F10.2°C 50.1°F10.1°C 99% Calm Calm 0.7 mph1.1 kmh 30.30 in1026.1 mb 0.00 in0.0 mm 0.00 in0.0 mm 0.51 in13.0 mm
08:00 PM 50.4°F10.2°C 50.1°F10.1°C 99% Calm Calm -- 30.31 in1026.4 mb 0.00 in0.0 mm 0.00 in0.0 mm 0.51 in13.0 mm
08:15 PM 50.2°F10.1°C 49.9°F9.9°C 99% Calm Calm -- 30.31 in1026.4 mb 0.00 in0.0 mm 0.00 in0.0 mm 0.51 in13.0 mm
08:30 PM 50.2°F10.1°C 49.9°F9.9°C 99% Calm Calm -- 30.32 in1026.8 mb 0.00 in0.0 mm 0.00 in0.0 mm 0.51 in13.0 mm
08:45 PM 50.4°F10.2°C 50.1°F10.1°C 99% Calm Calm -- 30.31 in1026.4 mb 0.00 in0.0 mm 0.00 in0.0 mm 0.51 in13.0 mm
09:00 PM 50.4°F10.2°C 50.1°F10.1°C 99% Calm Calm -- 30.32 in1026.8 mb 0.00 in0.0 mm 0.00 in0.0 mm 0.51 in13.0 mm
09:15 PM 50.2°F10.1°C 49.9°F9.9°C 99% Calm Calm -- 30.32 in1026.8 mb 0.00 in0.0 mm 0.00 in0.0 mm 0.51 in13.0 mm
09:30 PM 50.2°F10.1°C 49.9°F9.9°C 99% Calm Calm -- 30.31 in1026.4 mb 0.00 in0.0 mm 0.00 in0.0 mm 0.51 in13.0 mm
09:45 PM 50.0°F10.0°C 49.7°F9.8°C 99% Calm Calm -- 30.31 in1026.4 mb 0.00 in0.0 mm 0.00 in0.0 mm 0.51 in13.0 mm
10:00 PM 50.0°F10.0°C 49.7°F9.8°C 99% Calm Calm -- 30.31 in1026.4 mb 0.00 in0.0 mm 0.00 in0.0 mm 0.51 in13.0 mm
10:15 PM 50.0°F10.0°C 49.7°F9.8°C 99% Calm Calm -- 30.31 in1026.4 mb 0.00 in0.0 mm 0.00 in0.0 mm 0.51 in13.0 mm
10:30 PM 50.2°F10.1°C 49.9°F9.9°C 99% Calm Calm -- 30.32 in1026.8 mb 0.00 in0.0 mm 0.00 in0.0 mm 0.51 in13.0 mm
10:45 PM 50.2°F10.1°C 49.9°F9.9°C 99% 0.3 mph SSW0.5 kmh SSW 0.7 mph1.1 kmh 30.31 in1026.4 mb 0.00 in0.0 mm 0.00 in0.0 mm 0.51 in13.0 mm
11:00 PM 50.2°F10.1°C 49.9°F9.9°C 99% Calm Calm -- 30.31 in1026.4 mb 0.00 in0.0 mm 0.00 in0.0 mm 0.29 in7.4 mm
11:15 PM 50.4°F10.2°C 50.1°F10.1°C 99% Calm Calm -- 30.31 in1026.4 mb 0.00 in0.0 mm 0.00 in0.0 mm 0.29 in7.4 mm
11:30 PM 50.4°F10.2°C 50.1°F10.1°C 99% Calm Calm -- 30.31 in1026.4 mb 0.00 in0.0 mm 0.00 in0.0 mm 0.29 in7.4 mm
11:45 PM 50.4°F10.2°C 50.1°F10.1°C 99% Calm Calm -- 30.31 in1026.4 mb 0.00 in0.0 mm 0.00 in0.0 mm 0.29 in7.4 mm